• Join FlightAware (Why Join?)
  • Login
  • US Flag 
12:49PM EDT


 

Airport Tracker/Info


-or-


 

Live Flight TrackerFlight Track Log ✈ JBU572 ✈ 19-Apr-2013 ✈ KPBI - KHPN

Flight Track Log - Related Links

Times and Time Zones

All times are in EDT time to prevent confusion due to time zone crossing. See the JBU572 flight status page for this flight to view local times or setup timezone preferences in your user account.

Time Position Orientation Groundspeed Altitude Reporting Facility
EDT Latitude Longitude Course Direction KTS MPH feet Rate Location/Type
08:05AM 26.7347 -79.9503 42° Northeast 301 346 5,600  Level Miami Center
08:06AM 26.9292 -79.6799 55° Northeast  Level FlightAware Approximate
08:06AM 26.7925 -79.8914 42° Northeast 296 341 8,600  Level Miami Center
08:07AM 26.9968 -79.5718 55° Northeast  Level FlightAware Approximate
08:07AM 26.8525 -79.8208 46° Northeast 290 334 10,700  Level Miami Center
08:08AM 27.0650 -79.4640 56° Northeast  Level FlightAware Approximate
08:08AM 26.9083 -79.7383 53° Northeast 338 389 12,200  Level Miami Center
08:09AM 27.1225 -79.3708 55° Northeast  Level FlightAware Approximate
08:09AM 26.9686 -79.6419 55° Northeast 369 425 14,500  Level Miami Center
08:10AM 27.1846 -79.2821 42° Northeast  Level FlightAware Approximate
08:10AM 27.0397 -79.5339 54° Northeast 388 447 16,600  Level Miami Center
08:11AM 27.1064 -79.4328 53° Northeast 394 453 18,300 1,740 Climbing Miami Center
08:12AM 27.1728 -79.3269 55° Northeast 406 467 20,100 1,800 Climbing Miami Center
08:13AM 27.2328 -79.2300 55° Northeast 411 473 21,900 1,620 Climbing Miami Center
08:14AM 27.3056 -79.1217 53° Northeast 417 480 23,400 1,560 Climbing Miami Center
08:15AM 27.3847 -79.0039 53° Northeast 422 486 25,100 1,380 Climbing Miami Center
08:16AM 27.4633 -78.9025 49° Northeast 427 491 26,200 1,200 Climbing Miami Center
08:17AM 27.5686 -78.8550 22° Northeast 415 478 27,500 1,140 Climbing Miami Center
08:18AM 27.6711 -78.8381 North 398 458 28,500 1,140 Climbing Miami Center
08:19AM 27.8050 -78.8122 10° North 425 489 29,800 1,200 Climbing Miami Center
08:20AM 27.9203 -78.7906 North 419 482 30,900 1,080 Climbing Miami Center
08:21AM 28.0333 -78.7692 North 413 475 32,000 1,080 Climbing Miami Center
08:22AM 28.1567 -78.7475 North 421 484 33,100 1,080 Climbing Miami Center
08:23AM 28.2717 -78.7258 North 426 490 34,200 900 Climbing Miami Center
08:24AM 28.3828 -78.7019 11° North 420 483 34,900 300 Climbing Miami Center
08:25AM 28.5019 -78.6825 North 414 476 34,900  Level Miami Center
08:26AM 28.6169 -78.6583 10° North 414 476 34,900  Level Miami Center
08:27AM 28.7361 -78.6389 North 414 476 34,900  Level Miami Center
08:28AM 28.8514 -78.6147 10° North 420 483 34,900  Level Miami Center
08:29AM 28.9683 -78.5928 North 420 483 35,000  Climbing Miami Center
08:30AM 29.0836 -78.5686 10° North 420 483 34,900 -60 Descending Miami Center
08:31AM 29.2028 -78.5467 North 419 482 34,900  Level Miami Center
08:32AM 29.3219 -78.5247 North 424 488 34,900  Level Miami Center
08:34AM 29.5536 -78.4811 North 427 491 34,900  Level Jacksonville Center
08:35AM 29.6675 -78.4544 11° North 427 491 34,900  Level Jacksonville Center
08:36AM 29.7814 -78.4275 12° North 422 486 34,900  Level Jacksonville Center
08:37AM 29.9039 -78.4100 North 428 493 34,900  Level Jacksonville Center
08:38AM 30.0197 -78.3831 11° North 428 493 34,900  Level Jacksonville Center
08:39AM 30.1400 -78.3631 North 428 493 35,000  Climbing Jacksonville Center
08:40AM 30.2622 -78.3333 12° North 419 482 35,000 -60 Level Jacksonville Center
08:41AM 30.3839 -78.2914 17° North 425 489 34,900 -60 Descending Jacksonville Center
08:42AM 30.5014 -78.2494 17° North 432 497 34,900  Level Jacksonville Center
08:43AM 30.6189 -78.2125 15° North 437 503 34,900  Level Jacksonville Center
08:44AM 30.7406 -78.1725 16° North 437 503 35,000  Climbing Jacksonville Center
08:45AM 30.8497 -78.1333 17° North 431 496 34,900 -60 Descending Jacksonville Center
08:46AM 30.9736 -78.0931 16° North 436 502 34,900  Level Jacksonville Center
08:47AM 31.0867 -78.0511 18° North 430 495 34,900  Level Jacksonville Center
08:48AM 31.2025 -78.0231 12° North 430 495 34,900  Level Jacksonville Center
08:49AM 31.3217 -77.9708 21° North 430 495 34,900  Level Jacksonville Center
08:50AM 31.4369 -77.9306 17° North 430 495 35,000  Climbing Jacksonville Center
08:51AM 31.5542 -77.8903 16° North 430 495 34,900 -60 Descending Jacksonville Center
08:52AM 31.6717 -77.8472 17° North 430 495 34,900  Level Jacksonville Center
08:53AM 31.7928 -77.8017 18° North 430 495 34,900  Level Jacksonville Center
08:54AM 31.9083 -77.7633 16° North 430 495 35,000  Climbing Jacksonville Center
08:55AM 32.0278 -77.7297 13° North 430 495 34,900 -60 Descending Jacksonville Center
08:56AM 32.1472 -77.6864 17° North 430 495 34,900  Level Jacksonville Center
08:57AM 32.2644 -77.6428 17° North 430 495 34,900  Level Jacksonville Center
08:58AM 32.3839 -77.6039 15° North 430 495 34,900  Level Jacksonville Center
08:59AM 32.5028 -77.5575 18° North 430 495 34,900  Level Jacksonville Center
09:00AM 32.6203 -77.5211 15° North 430 495 34,900  Level Jacksonville Center
09:01AM 32.7394 -77.4744 18° North 430 495 35,000  Climbing Jacksonville Center
09:02AM 32.8606 -77.4325 16° North 435 501 34,900 -60 Descending Jacksonville Center
09:03AM 33.0281 -77.3747 16° North 437 503 34,900  Level Washington Center
09:04AM 33.1475 -77.3328 16° North 437 503 34,900  Level Washington Center
09:05AM 33.2669 -77.2906 16° North 437 503 34,900  Level Washington Center
09:06AM 33.3864 -77.2481 17° North 437 503 35,000  Climbing Washington Center
09:07AM 33.4933 -77.2106 16° North 442 509 34,900 -60 Descending Washington Center
09:08AM 33.6108 -77.1653 18° North 442 509 34,900  Level Washington Center
09:09AM 33.7303 -77.1225 17° North 442 509 34,900  Level Washington Center
09:10AM 33.8497 -77.0772 17° North 442 509 34,900  Level Washington Center
09:11AM 33.9692 -77.0344 17° North 442 509 35,000  Climbing Washington Center
09:12AM 34.0886 -76.9914 17° North 442 509 34,900 -60 Descending Washington Center
09:13AM 34.2039 -76.9481 17° North 442 509 34,900  Level Washington Center
09:14AM 34.3253 -76.9047 16° North 442 509 34,900  Level Washington Center
09:15AM 34.4406 -76.8614 17° North 442 509 35,000  Climbing Washington Center
09:16AM 34.5619 -76.8178 16° North 442 509 34,900 -60 Descending Washington Center
09:17AM 34.6814 -76.7742 17° North 442 509 34,900  Level Washington Center
09:18AM 34.8006 -76.7303 17° North 447 514 35,000  Climbing Washington Center
09:19AM 34.9200 -76.6864 17° North 447 514 34,900  Descending Washington Center
09:20AM 35.0394 -76.6422 17° North 441 507 35,000  Climbing Washington Center
09:21AM 35.1586 -76.5981 17° North 446 513 35,000  Level Washington Center
09:22AM 35.2758 -76.5511 18° North 446 513 35,000 -60 Level Washington Center
09:23AM 35.4078 -76.4994 18° North 441 507 34,900  Descending Washington Center
09:24AM 35.5269 -76.4497 19° North 441 507 35,000  Climbing Washington Center
09:25AM 35.6503 -76.4075 16° North 446 513 35,000 -60 Level Washington Center
09:26AM 35.7697 -76.3653 16° North 446 513 34,900 -60 Descending Washington Center
09:27AM 35.8908 -76.3150 19° North 446 513 34,900  Level Washington Center
09:28AM 36.0122 -76.2725 16° North 446 513 34,900  Level Washington Center
09:29AM 36.1314 -76.2272 17° North 446 513 34,900  Level Washington Center
09:30AM 36.2528 -76.1792 18° North 446 513 35,000  Climbing Washington Center
09:31AM 36.3717 -76.1336 17° North 446 513 34,900 -60 Descending Washington Center
09:32AM 36.4908 -76.0881 17° North 441 507 34,900  Level Washington Center
09:33AM 36.6100 -76.0394 18° North 441 507 34,900  Level Washington Center
09:34AM 36.7333 -75.9911 17° North 446 513 35,000  Climbing Washington Center
09:35AM 36.8564 -75.9425 18° North 452 520 35,000  Level Washington Center
09:36AM 36.9756 -75.8961 17° North 452 520 35,000 -60 Level Washington Center
09:38AM 37.2114 -75.7928 19° North 467 537 34,900  Descending Washington Center
09:39AM 37.3306 -75.7328 22° Northeast 461 531 35,000  Climbing Washington Center
09:40AM 37.4494 -75.6703 23° Northeast 455 524 34,900 -60 Descending Washington Center
09:41AM 37.5683 -75.6128 21° North 455 524 34,900  Level Washington Center
09:42AM 37.6872 -75.5497 23° Northeast 455 524 34,900  Level Washington Center
09:43AM 37.8061 -75.4892 22° Northeast 455 524 34,900  Level Washington Center
09:44AM 37.9289 -75.4233 23° Northeast 460 529 34,900  Level Washington Center
09:45AM 38.0519 -75.3622 21° North 466 536 34,900  Level Washington Center
09:46AM 38.1728 -75.2986 22° Northeast 466 536 34,900  Level Washington Center
09:47AM 38.2936 -75.2347 23° Northeast 471 542 34,900  Level Washington Center
09:48AM 38.4247 -75.1569 25° Northeast 471 542 34,900  Level Washington Center
09:49AM 38.5475 -75.0953 21° North 471 542 34,900  Level Washington Center
09:50AM 38.6742 -75.0306 22° Northeast 471 542 35,000  Climbing Washington Center
09:51AM 38.7947 -74.9631 24° Northeast 471 542 34,900 -60 Descending Washington Center
09:52AM 38.9153 -74.8981 23° Northeast 471 542 34,900  Level Washington Center
09:53AM 39.0253 -74.8061 33° Northeast 466 536 34,900 -660 Level Washington Center
09:54AM 39.1331 -74.7058 36° Northeast 461 531 33,600 -1,800 Descending Washington Center
09:55AM 39.2406 -74.6108 34° Northeast 472 543 31,400 -2,100 Descending Washington Center
09:56AM 39.2531 -74.5967 41° Northeast 480 552 30,900 -2,100 Descending New York Center
09:56AM 39.3583 -74.5031 34° Northeast 485 558 28,800 -2,220 Descending New York Center
09:57AM 39.4656 -74.4067 35° Northeast 474 545 26,600 -2,220 Descending New York Center
09:59AM 39.5686 -74.3069 37° Northeast 468 539 24,400 -1,320 Descending New York Center
09:59AM 39.6675 -74.2039 39° Northeast 463 533 24,000 -300 Descending New York Center
10:00AM 39.7644 -74.1033 39° Northeast 457 526 23,900 -60 Descending New York Center
10:02AM 39.8611 -73.9972 40° Northeast 451 519 23,900 -1,080 Level New York Center
10:04AM 40.0964 -73.7475 39° Northeast 445 512 20,200 -1,740 Descending Boston Center
10:05AM 40.1892 -73.6514 38° Northeast 432 497 18,000 -1,620 Descending Boston Center
10:06AM 40.2939 -73.5881 25° Northeast 419 482 17,000 -600 Descending Boston Center
10:07AM 40.3986 -73.5272 24° Northeast 408 470 16,900 -60 Descending Boston Center
10:08AM 40.5161 -73.4611 23° Northeast 408 470 16,900  Level Boston Center
10:09AM 40.6000 -73.4167 22° Northeast 415 478 16,900 -780 Level New York TRACON
10:10AM 40.7000 -73.3500 27° Northeast 418 481 15,600 -1,140 Descending New York TRACON
10:11AM 40.8000 -73.2833 27° Northeast 428 493 14,700 -1,560 Descending New York TRACON
10:12AM 40.8833 -73.1333 54° Northeast 461 531 12,400 -1,860 Descending New York TRACON
10:13AM 40.9333 -73.0333 56° Northeast 402 463 11,000 -1,260 Descending New York TRACON
10:14AM 41.0333 -73.0000 14° North 346 398 9,900 -1,080 Descending New York TRACON
10:15AM 41.0667 -73.0833 298° West 279 321 8,900 -1,740 Descending New York TRACON
10:16AM 41.0833 -73.1833 282° West 272 313 6,600 -2,280 Descending New York TRACON
10:17AM 41.1167 -73.2667 298° West 257 296 4,400 -1,320 Descending New York TRACON
10:18AM 41.1333 -73.3500 285° West 253 291 4,000 -240 Descending New York TRACON
10:19AM 41.1667 -73.4500 294° West 257 296 4,000  Level New York TRACON
10:20AM 41.2000 -73.5333 298° West 258 297 4,000  Level New York TRACON
10:21AM 41.2167 -73.6000 288° West 233 268 4,000  Level New York TRACON
10:22AM 41.2333 -73.6833 285° West 182 209 4,000 -120 Level New York TRACON
10:23AM 41.2667 -73.7333 312° West 182 209 3,800 -540 Descending New York TRACON
10:24AM 41.2500 -73.7833 246° West 155 178 3,000 -780 Descending New York TRACON
10:25AM 41.2167 -73.8167 217° Southwest 157 181 2,400 -540 Descending New York TRACON
10:26AM 41.1833 -73.8000 159° South 134 154 2,000 -240 Descending New York TRACON
10:27AM 41.1500 -73.7667 143° Southeast 132 152 2,000  Level New York TRACON